CDT,Max TemperatureF,Mean TemperatureF,Min TemperatureF,Max Dew PointF,MeanDew PointF,Min DewpointF,Max Humidity, Mean Humidity, Min Humidity, Max Sea Level PressureIn, Mean Sea Level PressureIn, Min Sea Level PressureIn, Max VisibilityMiles, Mean VisibilityMiles, Min VisibilityMiles, Max Wind SpeedMPH, Mean Wind SpeedMPH, Max Gust SpeedMPH,PrecipitationIn, CloudCover, Events, WindDirDegrees
2012-10-1,75,62,50,54,49,46,97,65,35,30.27,30.19,30.13,10,10,10,22,8,31,0.00,1,,341
2012-10-2,79,63,47,52,48,44,95,63,28,30.27,30.19,30.09,10,10,10,17,5,24,0.00,0,,207
2012-10-3,88,73,58,49,42,35,65,38,15,30.19,30.11,30.08,10,10,10,21,9,28,0.00,0,,217
2012-10-4,81,68,54,50,42,33,80,41,20,30.33,30.26,30.19,10,10,7,15,8,23,0.00,0,,158
2012-10-5,87,70,54,50,45,40,80,44,21,30.28,30.21,30.13,10,10,10,13,8,16,0.00,0,,204
2012-10-6,68,60,53,57,51,42,100,76,42,30.27,30.18,30.11,10,9,0,13,7,17,0.00,4,,27
2012-10-7,57,48,38,48,42,39,100,90,63,30.32,30.25,30.17,10,7,1,14,9,22,0.00,6,,24
2012-10-8,80,61,42,50,46,43,100,69,30,30.26,30.20,30.11,10,7,0,13,3,18,0.00,3,,184
2012-10-9,85,72,58,50,45,38,67,42,19,30.20,30.14,30.09,10,10,10,15,8,,0.00,0,,212
2012-10-10,69,60,51,52,48,45,82,63,47,30.30,30.21,30.15,10,10,7,16,8,21,0.00,1,,6
2012-10-11,84,70,57,64,57,52,93,65,34,30.24,30.19,30.13,10,10,5,15,6,25,0.00,1,Thunderstorm,151
2012-10-12,82,70,59,62,59,55,96,70,43,30.30,30.20,30.13,10,10,0,34,8,40,0.41,2,Thunderstorm,167
2012-10-13,82,69,53,59,49,27,83,53,13,30.19,30.15,30.11,10,10,7,22,11,31,0.00,1,,198
2012-10-14,72,58,43,44,38,31,81,50,27,30.37,30.29,30.20,10,10,10,15,4,21,0.00,0,,31
2012-10-15,75,62,48,51,47,43,85,61,38,30.34,30.24,30.16,10,10,10,13,4,,0.00,1,,177
2012-10-16,76,68,59,58,55,50,90,68,42,30.16,30.05,29.97,10,10,10,18,11,24,0.00,2,,200
2012-10-17,84,70,57,57,43,30,82,46,14,30.05,29.99,29.95,10,10,10,25,10,33,0.03,0,,226
2012-10-18,79,66,52,42,37,33,65,36,20,30.16,30.10,30.04,10,10,10,12,5,18,0.00,0,,95
2012-10-19,83,65,47,44,39,32,74,43,16,30.17,30.11,30.06,10,10,7,14,7,17,0.00,0,,222
2012-10-20,85,70,56,48,43,39,56,39,25,30.08,30.03,29.97,10,10,10,18,9,25,0.00,0,,223
2012-10-21,86,74,61,55,45,40,69,39,21,30.11,30.04,30.01,10,10,5,10,7,17,0.00,0,,229
2012-10-22,84,68,52,54,45,34,84,50,18,30.12,30.08,30.04,10,10,7,15,5,23,0.00,0,,248
2012-10-23,87,70,52,58,44,37,78,46,18,30.13,30.08,30.04,10,10,10,12,6,,0.00,0,,217
2012-10-24,87,74,61,60,54,48,87,54,26,30.08,30.02,29.94,10,10,7,21,10,26,0.00,0,,206
2012-10-25,77,64,49,54,39,32,80,44,19,30.20,30.09,29.99,10,10,10,20,8,23,0.00,0,,334
2012-10-26,49,44,40,44,34,30,85,66,53,30.39,30.32,30.19,10,10,10,15,8,20,0.00,6,,36
2012-10-27,58,49,40,36,25,17,64,44,28,30.36,30.27,30.15,10,10,7,12,6,,0.00,5,,57
2012-10-28,71,52,34,38,34,30,88,55,28,30.29,30.23,30.18,10,10,7,13,5,18,0.00,0,,204
2012-10-29,79,62,44,40,34,25,72,43,15,30.29,30.23,30.16,10,10,7,14,7,21,0.00,0,,226
2012-10-30,82,65,47,33,26,12,50,29,7,30.21,30.17,30.11,10,10,4,15,7,21,0.00,0,,235
2012-10-31,79,60,42,36,25,19,60,33,11,30.24,30.18,30.14,10,10,7,9,6,,0.00,0,,180